FIN7AT EFHK-EFRO
Flight info
| Callsign | FIN7AT |
|---|---|
| Flight time | 1h 2m |
| Altitude | 36000 |
| Route | TEVRU Y75 MIMRU DCT EVSET Y86 RENVI |
| Aircraft | A320/M-SDE1E2E3FGIJ1M1RWXY/LB1 |
Departure
| Time | 2026-05-06 15:38 |
|---|---|
| Airport | Helsinki Vantaa Airport (EFHK) |
Arrival
| Time | 2026-05-06 16:40 |
|---|---|
| Airport | Rovaniemi Airport (EFRO) |
| Time | Latitude | Longitude | Altitude | Speed | Heading |
|---|---|---|---|---|---|
| 2026-05-06 15:03 | 60.31863 | 24.96997 | 165 ft | 0 kts | 242° |
| 2026-05-06 15:24 | 60.31872 | 24.97033 | 163 ft | 4 kts | 244° |
| 2026-05-06 15:24 | 60.31883 | 24.97082 | 163 ft | 4 kts | 256° |
| 2026-05-06 15:25 | 60.31884 | 24.97128 | 163 ft | 4 kts | 311° |
| 2026-05-06 15:25 | 60.31865 | 24.97153 | 163 ft | 4 kts | 333° |
| 2026-05-06 15:25 | 60.31852 | 24.97166 | 163 ft | 0 kts | 333° |
| 2026-05-06 15:28 | 60.31853 | 24.97166 | 163 ft | 1 kts | 333° |
| 2026-05-06 15:29 | 60.31859 | 24.97160 | 163 ft | 1 kts | 333° |
| 2026-05-06 15:29 | 60.31863 | 24.97155 | 163 ft | 1 kts | 333° |
| 2026-05-06 15:29 | 60.31880 | 24.97138 | 163 ft | 5 kts | 333° |
| 2026-05-06 15:29 | 60.31926 | 24.97091 | 163 ft | 8 kts | 333° |
| 2026-05-06 15:30 | 60.31970 | 24.97045 | 163 ft | 6 kts | 332° |
| 2026-05-06 15:30 | 60.32005 | 24.97007 | 163 ft | 5 kts | 332° |
| 2026-05-06 15:30 | 60.32035 | 24.96975 | 163 ft | 4 kts | 332° |
| 2026-05-06 15:30 | 60.32058 | 24.96951 | 163 ft | 3 kts | 332° |
| 2026-05-06 15:31 | 60.32076 | 24.96932 | 163 ft | 3 kts | 332° |
| 2026-05-06 15:31 | 60.32098 | 24.96906 | 163 ft | 4 kts | 330° |
| 2026-05-06 15:31 | 60.32125 | 24.96875 | 163 ft | 5 kts | 329° |
| 2026-05-06 15:32 | 60.32198 | 24.96788 | 165 ft | 8 kts | 330° |
| 2026-05-06 15:32 | 60.32255 | 24.96722 | 166 ft | 11 kts | 330° |
| 2026-05-06 15:32 | 60.32324 | 24.96641 | 169 ft | 12 kts | 329° |
| 2026-05-06 15:32 | 60.32388 | 24.96567 | 174 ft | 10 kts | 330° |
| 2026-05-06 15:33 | 60.32448 | 24.96496 | 176 ft | 11 kts | 330° |
| 2026-05-06 15:33 | 60.32534 | 24.96398 | 174 ft | 17 kts | 329° |
| 2026-05-06 15:33 | 60.32641 | 24.96271 | 172 ft | 18 kts | 329° |
| 2026-05-06 15:33 | 60.32744 | 24.96150 | 172 ft | 16 kts | 330° |
| 2026-05-06 15:34 | 60.32832 | 24.96049 | 174 ft | 13 kts | 330° |
| 2026-05-06 15:34 | 60.32902 | 24.95968 | 175 ft | 10 kts | 330° |
| 2026-05-06 15:34 | 60.32952 | 24.95909 | 176 ft | 7 kts | 329° |
| 2026-05-06 15:34 | 60.32980 | 24.95876 | 178 ft | 2 kts | 329° |
| 2026-05-06 15:35 | 60.32990 | 24.95864 | 179 ft | 2 kts | 330° |
| 2026-05-06 15:35 | 60.33003 | 24.95849 | 180 ft | 3 kts | 330° |
| 2026-05-06 15:35 | 60.33032 | 24.95815 | 181 ft | 7 kts | 330° |
| 2026-05-06 15:35 | 60.33089 | 24.95737 | 180 ft | 13 kts | 317° |
| 2026-05-06 15:36 | 60.33163 | 24.95598 | 181 ft | 16 kts | 317° |
| 2026-05-06 15:36 | 60.33205 | 24.95391 | 181 ft | 19 kts | 249° |
| 2026-05-06 15:36 | 60.33116 | 24.95157 | 177 ft | 22 kts | 247° |
| 2026-05-06 15:36 | 60.33112 | 24.94827 | 180 ft | 22 kts | 272° |
| 2026-05-06 15:37 | 60.33117 | 24.94573 | 185 ft | 18 kts | 272° |
| 2026-05-06 15:37 | 60.33101 | 24.94361 | 194 ft | 9 kts | 231° |
| 2026-05-06 15:37 | 60.33095 | 24.94348 | 192 ft | 0 kts | 228° |
| 2026-05-06 15:37 | 60.33072 | 24.94297 | 192 ft | 29 kts | 228° |
| 2026-05-06 15:38 | 60.32768 | 24.93633 | 181 ft | 96 kts | 227° |
| 2026-05-06 15:38 | 60.32186 | 24.92347 | 167 ft | 150 kts | 228° |
| 2026-05-06 15:38 | 60.31495 | 24.90788 | 782 ft | 146 kts | 227° |
| 2026-05-06 15:38 | 60.30815 | 24.89269 | 1491 ft | 146 kts | 228° |
| 2026-05-06 15:39 | 60.30283 | 24.87546 | 2056 ft | 146 kts | 254° |
| 2026-05-06 15:39 | 60.30168 | 24.85513 | 2560 ft | 148 kts | 277° |
| 2026-05-06 15:39 | 60.30466 | 24.83448 | 2924 ft | 163 kts | 295° |
| 2026-05-06 15:39 | 60.30965 | 24.81219 | 3181 ft | 186 kts | 294° |
| 2026-05-06 15:40 | 60.31525 | 24.78687 | 3436 ft | 210 kts | 294° |
| 2026-05-06 15:40 | 60.32188 | 24.75917 | 3774 ft | 234 kts | 298° |
| 2026-05-06 15:40 | 60.33000 | 24.72928 | 4344 ft | 250 kts | 299° |
| 2026-05-06 15:40 | 60.33894 | 24.69858 | 5181 ft | 256 kts | 306° |
| 2026-05-06 15:41 | 60.35220 | 24.67450 | 6026 ft | 261 kts | 331° |
| 2026-05-06 15:41 | 60.36968 | 24.66474 | 6848 ft | 267 kts | 358° |
| 2026-05-06 15:41 | 60.38826 | 24.66941 | 7682 ft | 271 kts | 8° |
| 2026-05-06 15:41 | 60.40695 | 24.67612 | 8513 ft | 275 kts | 8° |
| 2026-05-06 15:42 | 60.42592 | 24.68304 | 9349 ft | 279 kts | 8° |
| 2026-05-06 15:42 | 60.44518 | 24.69001 | 10150 ft | 283 kts | 7° |
| 2026-05-06 15:42 | 60.46522 | 24.69715 | 10507 ft | 303 kts | 7° |
| 2026-05-06 15:42 | 60.48677 | 24.70473 | 10750 ft | 324 kts | 7° |
| 2026-05-06 15:43 | 60.50932 | 24.71268 | 11353 ft | 332 kts | 6° |
| 2026-05-06 15:43 | 60.53230 | 24.72088 | 12074 ft | 337 kts | 5° |
| 2026-05-06 15:43 | 60.55557 | 24.72924 | 12782 ft | 342 kts | 4° |
| 2026-05-06 15:43 | 60.57913 | 24.73768 | 13493 ft | 346 kts | 4° |
| 2026-05-06 15:44 | 60.60298 | 24.74622 | 14147 ft | 350 kts | 3° |
| 2026-05-06 15:44 | 60.62720 | 24.75490 | 14738 ft | 355 kts | 3° |
| 2026-05-06 15:44 | 60.65171 | 24.76368 | 15308 ft | 360 kts | 2° |
| 2026-05-06 15:44 | 60.67657 | 24.77253 | 15876 ft | 365 kts | 2° |
| 2026-05-06 15:45 | 60.70179 | 24.78148 | 16442 ft | 370 kts | 2° |
| 2026-05-06 15:45 | 60.72737 | 24.79058 | 17000 ft | 376 kts | 2° |
| 2026-05-06 15:45 | 60.75332 | 24.79989 | 17562 ft | 381 kts | 2° |
| 2026-05-06 15:45 | 60.77967 | 24.80938 | 18118 ft | 386 kts | 2° |
| 2026-05-06 15:46 | 60.80625 | 24.81897 | 18619 ft | 391 kts | 2° |
| 2026-05-06 15:46 | 60.83316 | 24.82834 | 19149 ft | 393 kts | 360° |
| 2026-05-06 15:46 | 60.86028 | 24.83596 | 19687 ft | 394 kts | 358° |
| 2026-05-06 15:46 | 60.88761 | 24.84232 | 20217 ft | 396 kts | 356° |
| 2026-05-06 15:47 | 60.91512 | 24.84814 | 20748 ft | 399 kts | 356° |
| 2026-05-06 15:47 | 60.94284 | 24.85394 | 21259 ft | 403 kts | 356° |
| 2026-05-06 15:47 | 60.97062 | 24.85994 | 21788 ft | 407 kts | 356° |
| 2026-05-06 15:47 | 60.99882 | 24.86628 | 22291 ft | 411 kts | 356° |
| 2026-05-06 15:48 | 61.02734 | 24.87292 | 22784 ft | 414 kts | 356° |
| 2026-05-06 15:48 | 61.05611 | 24.87985 | 23273 ft | 418 kts | 356° |
| 2026-05-06 15:48 | 61.08512 | 24.88697 | 23717 ft | 422 kts | 356° |
| 2026-05-06 15:48 | 61.11438 | 24.89411 | 24091 ft | 425 kts | 356° |
| 2026-05-06 15:49 | 61.14388 | 24.90118 | 24514 ft | 429 kts | 355° |
| 2026-05-06 15:49 | 61.17363 | 24.90832 | 24880 ft | 432 kts | 355° |
| 2026-05-06 15:49 | 61.20359 | 24.91550 | 25225 ft | 435 kts | 355° |
| 2026-05-06 15:49 | 61.23379 | 24.92273 | 25559 ft | 439 kts | 354° |
| 2026-05-06 15:50 | 61.26429 | 24.93003 | 25890 ft | 442 kts | 354° |
| 2026-05-06 15:50 | 61.29496 | 24.93741 | 26209 ft | 445 kts | 354° |
| 2026-05-06 15:50 | 61.32587 | 24.94492 | 26533 ft | 449 kts | 354° |
| 2026-05-06 15:50 | 61.35700 | 24.95253 | 26860 ft | 452 kts | 354° |
| 2026-05-06 15:51 | 61.38836 | 24.96017 | 27168 ft | 455 kts | 354° |
| 2026-05-06 15:51 | 61.41993 | 24.96787 | 27468 ft | 458 kts | 354° |
| 2026-05-06 15:51 | 61.45166 | 24.97559 | 27847 ft | 462 kts | 354° |
| 2026-05-06 15:51 | 61.48365 | 24.98341 | 28164 ft | 464 kts | 353° |
| 2026-05-06 15:52 | 61.51584 | 24.99131 | 28467 ft | 467 kts | 353° |
| 2026-05-06 15:52 | 61.54794 | 24.99923 | 28755 ft | 470 kts | 353° |
| 2026-05-06 15:52 | 61.58054 | 25.00729 | 29031 ft | 473 kts | 353° |
| 2026-05-06 15:52 | 61.61338 | 25.01478 | 29308 ft | 471 kts | 350° |
| 2026-05-06 15:53 | 61.64586 | 25.01696 | 29574 ft | 468 kts | 347° |
| 2026-05-06 15:53 | 61.67855 | 25.01827 | 29836 ft | 470 kts | 347° |
| 2026-05-06 15:53 | 61.71134 | 25.01941 | 30088 ft | 473 kts | 347° |
| 2026-05-06 15:53 | 61.74428 | 25.02048 | 30313 ft | 475 kts | 347° |
| 2026-05-06 15:54 | 61.77732 | 25.02161 | 30603 ft | 476 kts | 347° |
| 2026-05-06 15:54 | 61.81047 | 25.02284 | 30905 ft | 475 kts | 347° |
| 2026-05-06 15:54 | 61.84355 | 25.02412 | 31212 ft | 475 kts | 348° |
| 2026-05-06 15:54 | 61.87656 | 25.02547 | 31536 ft | 474 kts | 348° |
| 2026-05-06 15:55 | 61.90951 | 25.02682 | 31865 ft | 472 kts | 348° |
| 2026-05-06 15:55 | 61.94231 | 25.02812 | 32195 ft | 471 kts | 348° |
| 2026-05-06 15:55 | 61.97510 | 25.02937 | 32516 ft | 470 kts | 348° |
| 2026-05-06 15:55 | 62.00773 | 25.03062 | 32846 ft | 468 kts | 348° |
| 2026-05-06 15:56 | 62.04026 | 25.03191 | 33169 ft | 467 kts | 348° |
| 2026-05-06 15:56 | 62.07236 | 25.03315 | 33478 ft | 466 kts | 349° |
| 2026-05-06 15:56 | 62.10472 | 25.03436 | 33839 ft | 465 kts | 349° |
| 2026-05-06 15:56 | 62.13700 | 25.03559 | 34141 ft | 463 kts | 349° |
| 2026-05-06 15:57 | 62.16928 | 25.03680 | 34399 ft | 463 kts | 349° |
| 2026-05-06 15:57 | 62.20145 | 25.03799 | 34621 ft | 462 kts | 350° |
| 2026-05-06 15:57 | 62.23361 | 25.03916 | 34820 ft | 462 kts | 350° |
| 2026-05-06 15:57 | 62.26577 | 25.04030 | 35035 ft | 462 kts | 350° |
| 2026-05-06 15:58 | 62.29794 | 25.04151 | 35251 ft | 462 kts | 351° |
| 2026-05-06 15:58 | 62.33009 | 25.04275 | 35454 ft | 462 kts | 351° |
| 2026-05-06 15:58 | 62.36225 | 25.04405 | 35637 ft | 462 kts | 351° |
| 2026-05-06 15:58 | 62.39397 | 25.04535 | 35830 ft | 462 kts | 351° |
| 2026-05-06 15:59 | 62.42613 | 25.04664 | 35939 ft | 462 kts | 352° |
| 2026-05-06 15:59 | 62.45819 | 25.04796 | 35960 ft | 460 kts | 352° |
| 2026-05-06 15:59 | 62.52209 | 25.05054 | 35957 ft | 459 kts | 352° |
| 2026-05-06 16:00 | 62.58604 | 25.05308 | 35954 ft | 460 kts | 352° |
| 2026-05-06 16:00 | 62.65008 | 25.05545 | 35958 ft | 460 kts | 352° |
| 2026-05-06 16:01 | 62.71417 | 25.05781 | 35954 ft | 460 kts | 352° |
| 2026-05-06 16:01 | 62.77830 | 25.06023 | 35980 ft | 460 kts | 352° |
| 2026-05-06 16:02 | 62.84242 | 25.06282 | 35970 ft | 460 kts | 352° |
| 2026-05-06 16:02 | 62.90644 | 25.06550 | 35960 ft | 460 kts | 352° |
| 2026-05-06 16:03 | 62.97003 | 25.06810 | 35957 ft | 460 kts | 352° |
| 2026-05-06 16:03 | 63.03402 | 25.07070 | 35950 ft | 460 kts | 352° |
| 2026-05-06 16:04 | 63.09807 | 25.07330 | 35992 ft | 460 kts | 353° |
| 2026-05-06 16:04 | 63.16204 | 25.07578 | 35972 ft | 460 kts | 353° |
| 2026-05-06 16:05 | 63.22600 | 25.07840 | 35963 ft | 459 kts | 353° |
| 2026-05-06 16:05 | 63.28994 | 25.08099 | 35972 ft | 459 kts | 353° |
| 2026-05-06 16:06 | 63.35405 | 25.08908 | 35947 ft | 464 kts | 358° |
| 2026-05-06 16:06 | 63.41854 | 25.10486 | 35973 ft | 466 kts | 359° |
| 2026-05-06 16:07 | 63.47215 | 25.11877 | 35960 ft | 466 kts | 359° |
| 2026-05-06 16:07 | 63.54706 | 25.13602 | 35937 ft | 465 kts | 358° |
| 2026-05-06 16:08 | 63.61153 | 25.14958 | 35931 ft | 465 kts | 358° |
| 2026-05-06 16:08 | 63.66558 | 25.16107 | 35928 ft | 466 kts | 358° |
| 2026-05-06 16:09 | 63.72972 | 25.17525 | 35924 ft | 466 kts | 358° |
| 2026-05-06 16:09 | 63.79429 | 25.18983 | 35946 ft | 465 kts | 359° |
| 2026-05-06 16:10 | 63.85881 | 25.20436 | 35945 ft | 465 kts | 359° |
| 2026-05-06 16:10 | 63.92323 | 25.21887 | 35933 ft | 465 kts | 359° |
| 2026-05-06 16:11 | 63.98762 | 25.23329 | 35924 ft | 465 kts | 359° |
| 2026-05-06 16:11 | 64.05199 | 25.24786 | 35918 ft | 465 kts | 359° |
| 2026-05-06 16:12 | 64.11616 | 25.26241 | 35943 ft | 465 kts | 359° |
| 2026-05-06 16:12 | 64.18050 | 25.27710 | 35955 ft | 464 kts | 359° |
| 2026-05-06 16:13 | 64.24488 | 25.29182 | 35936 ft | 465 kts | 359° |
| 2026-05-06 16:13 | 64.30920 | 25.30664 | 35926 ft | 465 kts | 359° |
| 2026-05-06 16:14 | 64.37359 | 25.32159 | 35918 ft | 465 kts | 360° |
| 2026-05-06 16:14 | 64.43789 | 25.33673 | 35940 ft | 465 kts | 0° |
| 2026-05-06 16:15 | 64.50217 | 25.35194 | 35930 ft | 465 kts | 0° |
| 2026-05-06 16:15 | 64.56649 | 25.36703 | 35924 ft | 464 kts | 360° |
| 2026-05-06 16:16 | 64.63094 | 25.38216 | 35917 ft | 464 kts | 0° |
| 2026-05-06 16:16 | 64.69516 | 25.39735 | 35919 ft | 464 kts | 360° |
| 2026-05-06 16:17 | 64.75946 | 25.41265 | 35946 ft | 464 kts | 0° |
| 2026-05-06 16:17 | 64.82372 | 25.42806 | 35939 ft | 464 kts | 0° |
| 2026-05-06 16:18 | 64.88753 | 25.44348 | 35927 ft | 464 kts | 0° |
| 2026-05-06 16:18 | 64.95179 | 25.45904 | 35926 ft | 464 kts | 0° |
| 2026-05-06 16:19 | 65.01607 | 25.47266 | 35924 ft | 462 kts | 358° |
| 2026-05-06 16:19 | 65.08022 | 25.47660 | 35941 ft | 461 kts | 355° |
| 2026-05-06 16:20 | 65.14443 | 25.47712 | 35910 ft | 462 kts | 355° |
| 2026-05-06 16:20 | 65.20879 | 25.47936 | 35896 ft | 463 kts | 356° |
| 2026-05-06 16:21 | 65.27336 | 25.48352 | 35889 ft | 464 kts | 357° |
| 2026-05-06 16:21 | 65.33816 | 25.48792 | 34821 ft | 471 kts | 356° |
| 2026-05-06 16:22 | 65.37119 | 25.48985 | 33901 ft | 476 kts | 356° |
| 2026-05-06 16:22 | 65.40396 | 25.49174 | 33116 ft | 475 kts | 357° |
| 2026-05-06 16:22 | 65.43688 | 25.49366 | 32457 ft | 470 kts | 357° |
| 2026-05-06 16:22 | 65.46933 | 25.49558 | 31832 ft | 464 kts | 357° |
| 2026-05-06 16:23 | 65.50164 | 25.49742 | 31032 ft | 464 kts | 357° |
| 2026-05-06 16:23 | 65.53383 | 25.49926 | 30404 ft | 460 kts | 357° |
| 2026-05-06 16:23 | 65.56563 | 25.50116 | 29798 ft | 455 kts | 357° |
| 2026-05-06 16:23 | 65.59707 | 25.50312 | 29115 ft | 449 kts | 357° |
| 2026-05-06 16:24 | 65.62819 | 25.50505 | 28450 ft | 443 kts | 358° |
| 2026-05-06 16:24 | 65.65878 | 25.50687 | 27840 ft | 438 kts | 358° |
| 2026-05-06 16:24 | 65.68912 | 25.50863 | 27228 ft | 433 kts | 358° |
| 2026-05-06 16:24 | 65.71904 | 25.51034 | 26644 ft | 427 kts | 358° |
| 2026-05-06 16:25 | 65.74866 | 25.51200 | 26077 ft | 423 kts | 358° |
| 2026-05-06 16:25 | 65.77794 | 25.51364 | 25242 ft | 423 kts | 359° |
| 2026-05-06 16:25 | 65.80777 | 25.51529 | 24248 ft | 430 kts | 359° |
| 2026-05-06 16:25 | 65.83716 | 25.51699 | 23574 ft | 427 kts | 0° |
| 2026-05-06 16:26 | 65.86675 | 25.51882 | 22860 ft | 423 kts | 0° |
| 2026-05-06 16:26 | 65.89598 | 25.52069 | 22173 ft | 418 kts | 0° |
| 2026-05-06 16:26 | 65.92493 | 25.52250 | 21533 ft | 414 kts | 0° |
| 2026-05-06 16:26 | 65.95354 | 25.52423 | 20911 ft | 409 kts | 0° |
| 2026-05-06 16:27 | 65.98190 | 25.52595 | 20306 ft | 405 kts | 360° |
| 2026-05-06 16:27 | 66.00977 | 25.52767 | 19465 ft | 396 kts | 360° |
| 2026-05-06 16:27 | 66.03712 | 25.52930 | 18445 ft | 390 kts | 0° |
| 2026-05-06 16:27 | 66.06400 | 25.53284 | 17399 ft | 384 kts | 7° |
| 2026-05-06 16:28 | 66.08961 | 25.54963 | 16431 ft | 380 kts | 21° |
| 2026-05-06 16:28 | 66.11293 | 25.57783 | 16027 ft | 362 kts | 26° |
| 2026-05-06 16:28 | 66.13480 | 25.60517 | 15558 ft | 345 kts | 25° |
| 2026-05-06 16:28 | 66.15587 | 25.63132 | 15120 ft | 330 kts | 25° |
| 2026-05-06 16:29 | 66.17600 | 25.65629 | 14742 ft | 316 kts | 25° |
| 2026-05-06 16:29 | 66.19560 | 25.68061 | 14361 ft | 315 kts | 25° |
| 2026-05-06 16:29 | 66.21516 | 25.70496 | 13970 ft | 314 kts | 25° |
| 2026-05-06 16:29 | 66.23462 | 25.72933 | 13572 ft | 313 kts | 26° |
| 2026-05-06 16:30 | 66.25407 | 25.75379 | 13164 ft | 311 kts | 26° |
| 2026-05-06 16:30 | 66.26683 | 25.76983 | 12910 ft | 310 kts | 26° |
| 2026-05-06 16:30 | 66.29242 | 25.80205 | 12391 ft | 307 kts | 26° |
| 2026-05-06 16:30 | 66.31139 | 25.82597 | 12003 ft | 305 kts | 26° |
| 2026-05-06 16:31 | 66.33026 | 25.84982 | 11607 ft | 303 kts | 26° |
| 2026-05-06 16:31 | 66.34904 | 25.87362 | 11213 ft | 302 kts | 26° |
| 2026-05-06 16:31 | 66.36775 | 25.89733 | 10824 ft | 300 kts | 26° |
| 2026-05-06 16:31 | 66.38632 | 25.92097 | 10429 ft | 299 kts | 26° |
| 2026-05-06 16:32 | 66.40481 | 25.94458 | 10032 ft | 298 kts | 26° |
| 2026-05-06 16:32 | 66.42282 | 25.96760 | 9850 ft | 289 kts | 26° |
| 2026-05-06 16:32 | 66.44054 | 25.99027 | 9579 ft | 284 kts | 26° |
| 2026-05-06 16:32 | 66.45816 | 26.01275 | 9114 ft | 285 kts | 26° |
| 2026-05-06 16:33 | 66.47575 | 26.03519 | 8727 ft | 282 kts | 26° |
| 2026-05-06 16:33 | 66.49328 | 26.05766 | 8289 ft | 282 kts | 26° |
| 2026-05-06 16:33 | 66.51072 | 26.08011 | 7785 ft | 283 kts | 26° |
| 2026-05-06 16:34 | 66.54446 | 26.12363 | 7182 ft | 266 kts | 26° |
| 2026-05-06 16:34 | 66.56084 | 26.14484 | 6711 ft | 264 kts | 26° |
| 2026-05-06 16:34 | 66.57713 | 26.16599 | 6230 ft | 262 kts | 26° |
| 2026-05-06 16:34 | 66.59329 | 26.18692 | 5745 ft | 260 kts | 26° |
| 2026-05-06 16:35 | 66.60936 | 26.20773 | 5199 ft | 260 kts | 27° |
| 2026-05-06 16:35 | 66.62545 | 26.22797 | 4717 ft | 256 kts | 21° |
| 2026-05-06 16:35 | 66.64276 | 26.23623 | 4253 ft | 252 kts | 358° |
| 2026-05-06 16:35 | 66.65920 | 26.22786 | 4178 ft | 232 kts | 337° |
| 2026-05-06 16:36 | 66.67277 | 26.20753 | 3923 ft | 228 kts | 318° |
| 2026-05-06 16:36 | 66.68242 | 26.17737 | 3772 ft | 214 kts | 297° |
| 2026-05-06 16:36 | 66.68723 | 26.14309 | 3704 ft | 203 kts | 279° |
| 2026-05-06 16:36 | 66.68758 | 26.10791 | 3600 ft | 200 kts | 261° |
| 2026-05-06 16:37 | 66.68374 | 26.07450 | 3432 ft | 198 kts | 244° |
| 2026-05-06 16:37 | 66.67608 | 26.04585 | 3212 ft | 197 kts | 225° |
| 2026-05-06 16:37 | 66.66567 | 26.02410 | 2995 ft | 192 kts | 217° |
| 2026-05-06 16:37 | 66.65513 | 26.00372 | 2696 ft | 189 kts | 217° |
| 2026-05-06 16:38 | 66.64482 | 25.98379 | 2430 ft | 183 kts | 217° |
| 2026-05-06 16:38 | 66.63524 | 25.96534 | 2186 ft | 169 kts | 217° |
| 2026-05-06 16:38 | 66.62624 | 25.94804 | 1953 ft | 156 kts | 217° |
| 2026-05-06 16:38 | 66.61784 | 25.93192 | 1753 ft | 148 kts | 217° |
| 2026-05-06 16:39 | 66.60980 | 25.91650 | 1557 ft | 143 kts | 217° |
| 2026-05-06 16:39 | 66.60196 | 25.90148 | 1335 ft | 141 kts | 216° |
| 2026-05-06 16:39 | 66.59425 | 25.88661 | 1121 ft | 139 kts | 216° |
| 2026-05-06 16:39 | 66.58660 | 25.87196 | 936 ft | 137 kts | 216° |
| 2026-05-06 16:40 | 66.57901 | 25.85748 | 747 ft | 136 kts | 215° |
| 2026-05-06 16:40 | 66.57160 | 25.84338 | 635 ft | 123 kts | 216° |
| 2026-05-06 16:40 | 66.56606 | 25.83279 | 653 ft | 75 kts | 218° |
| 2026-05-06 16:40 | 66.56362 | 25.82809 | 651 ft | 15 kts | 217° |
| 2026-05-06 16:41 | 66.56270 | 25.82707 | 648 ft | 15 kts | 162° |
| 2026-05-06 16:41 | 66.56223 | 25.82850 | 646 ft | 9 kts | 122° |
| 2026-05-06 16:41 | 66.56178 | 25.82966 | 643 ft | 10 kts | 169° |
| 2026-05-06 16:41 | 66.56117 | 25.82883 | 642 ft | 11 kts | 218° |
| 2026-05-06 16:42 | 66.56053 | 25.82763 | 642 ft | 13 kts | 217° |
| 2026-05-06 16:42 | 66.55975 | 25.82614 | 646 ft | 15 kts | 217° |
| 2026-05-06 16:42 | 66.55906 | 25.82489 | 639 ft | 9 kts | 203° |
| 2026-05-06 16:42 | 66.55861 | 25.82543 | 644 ft | 6 kts | 138° |
| 2026-05-06 16:43 | 66.55842 | 25.82584 | 640 ft | 2 kts | 138° |
| 2026-05-06 16:43 | 66.55832 | 25.82608 | 641 ft | 0 kts | 139° |